CYKL

Schefferville Airport

ICAO Code CYKL
IATA Code YKL
Name Schefferville Airport
Location Schefferville, Quebec, CA
Elevation 1709 Feet / 520.9 Meters
Latitude 54.80527778
Longitude -66.80527778
METAR CYKL 080700Z AUTO 12004KT 090V150 9SM -SN FEW006 OVC010 00/00 A3004 RMK SLP200
Extra information Display Charts and CFS
Display NOTAMS
Runway Length Width Surface Elevation
17 5002 ft 150 ft ASP 1688 ft
35 5002 ft 150 ft ASP 1698 ft